Weather at Lumberton Regional Airport

Public forecast

Using degrees Fahrenheit for public forecast. Weather courtesy of forecast.io.

Current aviation weather report (METAR) for Lumberton Regional Airport

Report is more than 6 hours old.

Retrieved 2019/03/28 13:55 UTC (2 years ago):

KLBT 281355Z MKT MSM M M M M A0000 M M RMK TEST

Aviation forecast (TAF) for Lumberton Regional Airport

Retrieved 2020/10/19 18:22 UTC (5 hours ago):

TAF KLBT 191720Z 1918/2018 05007KT P6SM FEW120 FM201000 02006KT 4SM BR SCT004 TEMPO 2010/2013 2SM BR BKN003 FM201300 02006KT P6SM BKN025 FM201500 05006KT P6SM BKN080 AMD NOT SKED